Time;durP1;ratioP1;P1;durP2;ratioP2;P2;SDS_P1;SDS_P2;PMS_P1;PMS_P2;Temp;Humidity;BMP_temperature;BMP_pressure;BME280_temperature;BME280_humidity;BME280_pressure;Samples;Min_cycle;Max_cycle;Signal;HPM_P1;HPM_P2
2021/11/24 00:00:31;;;;;;;11.50;6.38;;;27.80;90.30;;;;;;5064897;28;20020;-50
2021/11/24 00:02:58;;;;;;;9.80;6.32;;;27.80;90.30;;;;;;5064717;28;20008;-46
2021/11/24 00:05:25;;;;;;;10.10;6.38;;;27.90;90.20;;;;;;5064663;28;20045;-46
2021/11/24 00:07:52;;;;;;;13.00;5.63;;;27.90;90.20;;;;;;5064419;28;20025;-46
2021/11/24 00:10:19;;;;;;;6.95;4.72;;;27.80;90.20;;;;;;5064702;28;20024;-48
2021/11/24 00:12:47;;;;;;;7.22;4.28;;;27.80;90.20;;;;;;5064826;28;20201;-56
2021/11/24 00:15:14;;;;;;;8.25;4.05;;;27.80;90.10;;;;;;5065194;28;20244;-49
2021/11/24 00:17:41;;;;;;;8.77;3.40;;;27.80;90.10;;;;;;5064442;28;20028;-46
2021/11/24 00:20:09;;;;;;;7.45;3.13;;;27.80;90.10;;;;;;5065244;28;20028;-46
2021/11/24 00:22:36;;;;;;;7.35;3.47;;;27.80;90.20;;;;;;5064452;28;20025;-52
2021/11/24 00:25:03;;;;;;;6.80;3.38;;;27.80;90.10;;;;;;5064921;28;20028;-48
2021/11/24 00:27:30;;;;;;;7.05;2.95;;;27.70;90.10;;;;;;5063450;28;20048;-47
2021/11/24 00:29:56;;;;;;;4.72;2.95;;;27.70;90.10;;;;;;5064679;28;20036;-48
2021/11/24 00:32:23;;;;;;;4.13;2.92;;;27.70;90.00;;;;;;5064587;28;20146;-49
2021/11/24 00:34:49;;;;;;;5.03;3.08;;;27.70;90.00;;;;;;5064711;28;20064;-46
2021/11/24 00:37:16;;;;;;;6.03;2.42;;;27.70;90.00;;;;;;5064442;28;20079;-46
2021/11/24 00:39:43;;;;;;;3.67;2.40;;;27.70;90.00;;;;;;5064808;28;20033;-50
2021/11/24 00:42:10;;;;;;;3.70;2.50;;;27.70;90.00;;;;;;5064586;28;20017;-51
2021/11/24 00:44:36;;;;;;;5.53;2.45;;;27.70;90.00;;;;;;5064186;28;20021;-55
2021/11/24 00:47:04;;;;;;;5.50;2.20;;;27.70;89.90;;;;;;5064323;28;20108;-49
2021/11/24 00:49:31;;;;;;;5.40;2.90;;;27.70;89.90;;;;;;5064418;28;20033;-47
2021/11/24 00:51:57;;;;;;;5.13;3.17;;;27.70;90.20;;;;;;5063964;28;20298;-49
2021/11/24 00:54:24;;;;;;;5.90;3.80;;;27.70;89.80;;;;;;5064260;28;20059;-46
2021/11/24 00:56:51;;;;;;;3.67;3.17;;;27.70;89.90;;;;;;5063789;28;20020;-49
2021/11/24 00:59:17;;;;;;;5.68;3.08;;;27.70;89.70;;;;;;5064051;28;20040;-46
2021/11/24 01:01:44;;;;;;;4.70;2.90;;;27.70;89.70;;;;;;5066411;28;20020;-47
2021/11/24 01:04:11;;;;;;;4.47;3.05;;;27.70;89.60;;;;;;5069354;28;20036;-48
2021/11/24 01:06:37;;;;;;;8.10;3.08;;;27.70;89.30;;;;;;5070182;28;20052;-51
2021/11/24 01:09:05;;;;;;;5.45;2.70;;;27.70;89.30;;;;;;5070464;28;20028;-48
2021/11/24 01:11:32;;;;;;;3.10;2.42;;;27.60;89.20;;;;;;5070425;28;20029;-52
2021/11/24 01:13:59;;;;;;;4.10;3.00;;;27.60;89.00;;;;;;5070488;28;20252;-50
2021/11/24 01:16:26;;;;;;;8.52;2.60;;;27.70;89.00;;;;;;5070177;28;20024;-53
2021/11/24 01:18:52;;;;;;;3.33;2.40;;;27.70;89.00;;;;;;5070729;28;20033;-48
2021/11/24 01:21:19;;;;;;;5.10;2.30;;;27.60;88.90;;;;;;5070274;28;20017;-50
2021/11/24 01:23:46;;;;;;;5.18;2.30;;;27.60;88.90;;;;;;5070574;28;20025;-49
2021/11/24 01:26:14;;;;;;;5.13;2.13;;;27.60;88.90;;;;;;5070484;28;20163;-49
2021/11/24 01:28:40;;;;;;;7.85;2.50;;;27.60;88.90;;;;;;5070439;28;20049;-52
2021/11/24 01:31:07;;;;;;;7.65;2.30;;;27.60;88.80;;;;;;5070123;28;20063;-46
2021/11/24 01:33:34;;;;;;;6.03;2.97;;;27.60;88.90;;;;;;5070259;28;20292;-51
2021/11/24 01:36:01;;;;;;;6.38;2.80;;;27.50;88.70;;;;;;5070195;28;20340;-46
2021/11/24 01:38:28;;;;;;;4.57;2.35;;;27.60;88.70;;;;;;5070276;28;20039;-54
2021/11/24 01:40:55;;;;;;;4.70;2.50;;;27.60;88.50;;;;;;5070097;28;20024;-52
2021/11/24 01:43:22;;;;;;;4.40;2.10;;;27.60;88.50;;;;;;5070222;28;20021;-47
2021/11/24 01:45:49;;;;;;;6.10;2.22;;;27.60;88.50;;;;;;5070103;28;20313;-51
2021/11/24 01:48:16;;;;;;;2.97;1.90;;;27.50;88.30;;;;;;5070009;28;20024;-47
2021/11/24 01:50:43;;;;;;;4.93;1.90;;;27.50;88.10;;;;;;5070003;28;20028;-49
2021/11/24 01:53:10;;;;;;;4.10;2.25;;;27.50;88.20;;;;;;5070063;28;20209;-48
2021/11/24 01:55:36;;;;;;;3.95;1.95;;;27.50;88.10;;;;;;5070088;28;20040;-51
2021/11/24 01:58:04;;;;;;;12.25;2.10;;;27.50;88.20;;;;;;5070195;28;20021;-53
2021/11/24 02:00:33;;;;;;;3.90;2.00;;;27.50;88.20;;;;;;5070118;28;20028;-47
2021/11/24 02:03:02;;;;;;;5.05;2.25;;;27.50;88.10;;;;;;5070056;28;20076;-54
2021/11/24 02:05:29;;;;;;;4.05;2.05;;;27.40;88.10;;;;;;5069816;28;20288;-48
2021/11/24 02:07:55;;;;;;;5.07;2.33;;;27.50;88.20;;;;;;5069607;28;20023;-47
2021/11/24 02:10:23;;;;;;;4.30;2.15;;;27.40;88.20;;;;;;5070182;28;20025;-51
2021/11/24 02:12:50;;;;;;;4.30;2.10;;;27.50;88.20;;;;;;5066582;28;20088;-54
2021/11/24 02:15:19;;;;;;;5.57;2.08;;;27.50;88.10;;;;;;5066335;28;20075;-46
2021/11/24 02:17:45;;;;;;;4.78;1.90;;;27.50;88.20;;;;;;5066455;28;20066;-46
2021/11/24 02:20:18;;;;;;;4.70;2.15;;;27.50;88.10;;;;;;5066561;28;20087;-44
2021/11/24 02:22:45;;;;;;;3.95;1.85;;;27.50;88.00;;;;;;5066315;28;20032;-46
2021/11/24 02:25:12;;;;;;;4.13;2.00;;;27.50;87.80;;;;;;5066880;28;20021;-52
2021/11/24 02:27:39;;;;;;;6.95;1.60;;;27.50;87.60;;;;;;5066295;28;20048;-48
2021/11/24 02:30:06;;;;;;;4.72;1.88;;;27.50;87.70;;;;;;5066549;28;20023;-50
2021/11/24 02:32:32;;;;;;;3.42;1.83;;;27.50;87.60;;;;;;5066071;28;20021;-47
2021/11/24 02:34:59;;;;;;;3.65;1.75;;;27.40;87.50;;;;;;5066132;28;20013;-46
2021/11/24 02:37:26;;;;;;;6.55;1.77;;;27.40;87.40;;;;;;5064781;28;20226;-50
2021/11/24 02:39:52;;;;;;;5.22;1.90;;;27.40;87.40;;;;;;5066525;28;20021;-49
2021/11/24 02:42:19;;;;;;;2.10;1.70;;;27.40;87.50;;;;;;5066039;28;20044;-51
2021/11/24 02:44:45;;;;;;;5.28;1.80;;;27.40;87.40;;;;;;5066205;28;20017;-50
2021/11/24 02:47:19;;;;;;;4.22;1.90;;;27.40;87.40;;;;;;5065884;28;20021;-48
2021/11/24 02:49:51;;;;;;;3.35;1.85;;;27.40;87.30;;;;;;5065883;28;20020;-50
2021/11/24 02:52:20;;;;;;;3.25;1.80;;;27.40;87.30;;;;;;5065795;28;20033;-49
2021/11/24 02:54:52;;;;;;;4.90;1.98;;;27.40;87.30;;;;;;5066012;28;20060;-45
2021/11/24 02:57:28;;;;;;;3.33;1.65;;;27.40;87.20;;;;;;5065685;28;20039;-52
2021/11/24 02:59:55;;;;;;;4.18;2.05;;;27.40;87.10;;;;;;5066179;28;20323;-48
2021/11/24 03:02:21;;;;;;;2.75;1.90;;;27.40;87.10;;;;;;5065609;28;20029;-50
2021/11/24 03:04:48;;;;;;;6.35;2.10;;;27.40;87.10;;;;;;5065596;28;20021;-51
2021/11/24 03:07:15;;;;;;;4.43;1.90;;;27.40;87.10;;;;;;5065399;28;20052;-47
2021/11/24 03:09:41;;;;;;;4.40;2.10;;;27.40;87.00;;;;;;5065867;28;20088;-53
2021/11/24 03:12:08;;;;;;;5.35;2.17;;;27.40;86.90;;;;;;5064991;28;20025;-50
2021/11/24 03:14:34;;;;;;;3.42;2.30;;;27.30;86.90;;;;;;5065386;28;20024;-48
2021/11/24 03:17:01;;;;;;;3.42;2.00;;;27.30;86.90;;;;;;5064863;28;20023;-53
2021/11/24 03:19:27;;;;;;;2.58;1.90;;;27.30;87.00;;;;;;5065614;28;20063;-52
2021/11/24 03:21:54;;;;;;;3.67;2.00;;;27.30;86.90;;;;;;5065332;28;20088;-45
2021/11/24 03:24:21;;;;;;;4.22;2.15;;;27.30;87.20;;;;;;5065252;28;20020;-53
2021/11/24 03:26:47;;;;;;;2.63;1.83;;;27.30;87.30;;;;;;5064472;28;20025;-53
2021/11/24 03:29:14;;;;;;;4.38;1.98;;;27.30;87.30;;;;;;5065492;28;20240;-44
2021/11/24 03:31:41;;;;;;;3.28;1.98;;;27.30;87.40;;;;;;5065145;28;20040;-50
2021/11/24 03:34:09;;;;;;;2.63;1.75;;;27.30;87.40;;;;;;5065492;28;20024;-55
2021/11/24 03:36:37;;;;;;;6.43;2.17;;;27.30;87.50;;;;;;5065088;28;20025;-49
2021/11/24 03:39:06;;;;;;;4.05;2.10;;;27.30;87.60;;;;;;5064174;28;20028;-51
2021/11/24 03:41:33;;;;;;;3.17;1.90;;;27.30;87.60;;;;;;5064919;28;20016;-53
2021/11/24 03:43:59;;;;;;;3.28;1.90;;;27.30;87.60;;;;;;5065139;28;20377;-50
2021/11/24 03:46:26;;;;;;;4.22;2.00;;;27.30;87.60;;;;;;5064837;28;20027;-43
2021/11/24 03:48:52;;;;;;;5.55;2.22;;;27.30;87.50;;;;;;5065119;28;20040;-45
2021/11/24 03:51:19;;;;;;;5.20;2.17;;;27.30;87.60;;;;;;5064783;28;20257;-51
2021/11/24 03:53:46;;;;;;;7.95;2.10;;;27.30;87.50;;;;;;5065020;28;20036;-44
2021/11/24 03:56:14;;;;;;;3.63;2.08;;;27.30;87.70;;;;;;5064465;28;20213;-46
2021/11/24 03:58:40;;;;;;;4.55;2.25;;;27.20;87.60;;;;;;5064633;28;20039;-48
2021/11/24 04:01:08;;;;;;;4.50;2.38;;;27.20;87.90;;;;;;5064618;28;20321;-50
2021/11/24 04:03:35;;;;;;;7.50;2.20;;;27.20;87.80;;;;;;5064593;28;20033;-53
2021/11/24 04:06:02;;;;;;;3.25;2.20;;;27.20;87.90;;;;;;5064464;28;20037;-47
2021/11/24 04:08:28;;;;;;;3.17;2.10;;;27.20;87.90;;;;;;5064568;28;20020;-47
2021/11/24 04:10:58;;;;;;;4.18;2.00;;;27.20;88.10;;;;;;5064376;28;20021;-45
2021/11/24 04:13:25;;;;;;;4.15;2.17;;;27.20;88.20;;;;;;5064628;28;20039;-46
2021/11/24 04:15:52;;;;;;;3.47;1.92;;;27.20;88.30;;;;;;5064383;28;20028;-46
2021/11/24 04:18:18;;;;;;;2.83;1.92;;;27.20;88.40;;;;;;5064223;28;20087;-51
2021/11/24 04:20:45;;;;;;;5.13;1.98;;;27.20;88.70;;;;;;5064387;28;20012;-48
2021/11/24 04:23:11;;;;;;;4.50;2.10;;;27.20;88.50;;;;;;5064340;28;20047;-45
2021/11/24 04:25:38;;;;;;;6.43;2.08;;;27.20;88.70;;;;;;5064554;28;20021;-50
2021/11/24 04:28:05;;;;;;;5.97;2.40;;;27.20;88.70;;;;;;5064191;28;20028;-48
2021/11/24 04:30:31;;;;;;;5.88;2.28;;;27.20;88.60;;;;;;5064149;28;20024;-47
2021/11/24 04:32:58;;;;;;;7.07;2.38;;;27.20;88.90;;;;;;5064301;28;20154;-46
2021/11/24 04:35:25;;;;;;;5.97;2.45;;;27.20;88.70;;;;;;5064023;28;20220;-48
2021/11/24 04:37:52;;;;;;;5.05;2.47;;;27.20;88.60;;;;;;5063517;28;20032;-48
2021/11/24 04:40:19;;;;;;;5.60;2.60;;;27.20;88.70;;;;;;5064217;28;20017;-52
2021/11/24 04:42:46;;;;;;;5.50;2.65;;;27.20;88.80;;;;;;5062775;28;20082;-42
2021/11/24 04:45:14;;;;;;;6.95;2.90;;;27.20;88.80;;;;;;5064582;28;20075;-53
2021/11/24 04:47:40;;;;;;;4.75;2.85;;;27.20;88.90;;;;;;5063938;28;20021;-46
2021/11/24 04:50:07;;;;;;;6.28;3.00;;;27.20;88.70;;;;;;5064271;28;20021;-51
2021/11/24 04:52:35;;;;;;;6.65;2.75;;;27.20;88.90;;;;;;5063940;28;20052;-51
2021/11/24 04:55:02;;;;;;;9.23;2.90;;;27.20;88.90;;;;;;5064268;28;20096;-49
2021/11/24 04:57:29;;;;;;;5.50;3.00;;;27.20;89.00;;;;;;5063731;28;20013;-49
2021/11/24 04:59:55;;;;;;;4.70;2.50;;;27.20;89.00;;;;;;5064227;28;20020;-42
2021/11/24 05:02:22;;;;;;;7.22;2.60;;;27.20;88.90;;;;;;5063860;28;20021;-50
2021/11/24 05:04:49;;;;;;;6.93;2.42;;;27.10;88.80;;;;;;5064173;28;20028;-46
2021/11/24 05:07:15;;;;;;;6.70;2.88;;;27.10;88.80;;;;;;5063630;28;20037;-45
2021/11/24 05:09:42;;;;;;;6.30;2.40;;;27.10;88.90;;;;;;5064078;28;20024;-55
2021/11/24 05:12:09;;;;;;;7.32;2.17;;;27.10;88.90;;;;;;5063611;28;20055;-46
2021/11/24 05:14:36;;;;;;;5.30;2.38;;;27.10;88.80;;;;;;5063992;28;20108;-45
2021/11/24 05:17:05;;;;;;;5.63;2.25;;;27.10;88.90;;;;;;5063584;28;20080;-43
2021/11/24 05:19:35;;;;;;;4.72;2.28;;;27.10;88.80;;;;;;5063771;28;20183;-53
2021/11/24 05:22:01;;;;;;;4.35;2.50;;;27.10;88.80;;;;;;5063569;28;20076;-44
2021/11/24 05:24:28;;;;;;;6.13;2.58;;;27.10;88.70;;;;;;5064225;28;20036;-46
2021/11/24 05:26:54;;;;;;;5.82;2.05;;;27.10;88.60;;;;;;5063833;28;20305;-48
2021/11/24 05:29:22;;;;;;;5.90;2.33;;;27.00;88.30;;;;;;5063792;28;20036;-49
2021/11/24 05:31:49;;;;;;;5.38;2.30;;;27.00;88.20;;;;;;5063634;28;20372;-47
2021/11/24 05:34:15;;;;;;;4.97;2.00;;;27.00;88.10;;;;;;5063760;28;20041;-44
2021/11/24 05:36:42;;;;;;;4.25;1.98;;;27.00;87.90;;;;;;5063819;28;20356;-47
2021/11/24 05:39:10;;;;;;;3.42;2.13;;;27.00;87.90;;;;;;5063704;28;20033;-42
2021/11/24 05:41:40;;;;;;;4.47;2.00;;;27.00;87.90;;;;;;5063363;28;20017;-45
2021/11/24 05:44:25;;;;;;;3.80;2.13;;;27.00;87.50;;;;;;5063946;28;20029;-43
2021/11/24 05:46:58;;;;;;;3.80;2.10;;;27.00;87.40;;;;;;5063584;28;20045;-45
2021/11/24 05:49:26;;;;;;;3.72;2.17;;;27.00;87.10;;;;;;5066398;28;20036;-42
2021/11/24 05:51:54;;;;;;;4.07;2.08;;;27.00;87.00;;;;;;5067407;28;20328;-47
2021/11/24 05:54:20;;;;;;;4.60;1.98;;;27.00;86.80;;;;;;5067578;28;20041;-47
2021/11/24 05:56:47;;;;;;;4.90;1.95;;;27.10;86.90;;;;;;5067290;28;20017;-48
2021/11/24 05:59:16;;;;;;;5.25;1.88;;;27.00;86.90;;;;;;5067327;28;20029;-43
2021/11/24 06:01:43;;;;;;;2.63;2.00;;;27.00;87.00;;;;;;5067407;28;20025;-44
2021/11/24 06:04:09;;;;;;;3.22;2.00;;;27.00;87.10;;;;;;5067207;28;20321;-45
2021/11/24 06:06:36;;;;;;;1.95;1.83;;;27.00;87.50;;;;;;5066815;28;20037;-42
2021/11/24 06:09:05;;;;;;;6.18;2.20;;;27.00;87.70;;;;;;5067358;28;20055;-43
2021/11/24 06:11:32;;;;;;;6.78;2.30;;;27.00;88.10;;;;;;5066974;28;20025;-45
2021/11/24 06:13:59;;;;;;;2.40;2.00;;;26.90;88.00;;;;;;5066900;28;20029;-44
2021/11/24 06:16:26;;;;;;;4.47;2.10;;;27.00;88.40;;;;;;5066708;28;20017;-46
2021/11/24 06:18:52;;;;;;;5.00;2.20;;;27.00;88.60;;;;;;5066940;28;20088;-43
2021/11/24 06:21:22;;;;;;;3.50;1.73;;;26.90;88.60;;;;;;5066591;28;20021;-43
2021/11/24 06:23:50;;;;;;;5.03;2.20;;;27.00;88.70;;;;;;5066815;28;20028;-43
2021/11/24 06:26:17;;;;;;;2.67;1.95;;;26.90;88.90;;;;;;5066551;28;20055;-51
2021/11/24 06:28:43;;;;;;;3.38;2.00;;;26.90;89.20;;;;;;5066951;28;20101;-45
2021/11/24 06:31:10;;;;;;;3.90;2.30;;;26.90;89.20;;;;;;5066549;28;20021;-43
2021/11/24 06:33:37;;;;;;;7.43;2.22;;;26.90;89.40;;;;;;5066525;28;20230;-44
2021/11/24 06:36:04;;;;;;;3.25;2.05;;;26.90;89.20;;;;;;5066270;28;20028;-48
2021/11/24 06:38:30;;;;;;;6.97;2.00;;;26.90;89.30;;;;;;5066436;28;20201;-42
2021/11/24 06:40:57;;;;;;;3.80;2.00;;;26.90;89.40;;;;;;5066388;28;20017;-51
2021/11/24 06:43:23;;;;;;;2.45;1.70;;;26.90;89.70;;;;;;5066230;28;20025;-45
2021/11/24 06:45:50;;;;;;;4.57;2.30;;;26.80;89.60;;;;;;5066362;28;20062;-45
2021/11/24 06:48:16;;;;;;;5.03;2.08;;;26.90;89.90;;;;;;5066228;28;20063;-44
2021/11/24 06:50:43;;;;;;;5.15;2.22;;;26.80;89.60;;;;;;5066076;28;20033;-48
2021/11/24 06:53:10;;;;;;;2.65;1.90;;;26.80;89.50;;;;;;5065981;28;20335;-44
2021/11/24 06:55:37;;;;;;;6.03;2.10;;;26.90;89.60;;;;;;5066132;28;20028;-43
2021/11/24 06:58:03;;;;;;;4.45;2.00;;;26.80;89.50;;;;;;5065991;28;20047;-46
2021/11/24 07:00:30;;;;;;;3.22;2.00;;;26.80;89.70;;;;;;5065606;28;20309;-45
2021/11/24 07:02:56;;;;;;;5.13;2.00;;;26.80;89.60;;;;;;5065862;28;20021;-49
2021/11/24 07:05:23;;;;;;;7.15;2.38;;;26.80;89.80;;;;;;5066154;28;20110;-49
2021/11/24 07:07:49;;;;;;;1.98;1.77;;;26.80;90.30;;;;;;5065875;28;20017;-45
2021/11/24 07:10:16;;;;;;;3.42;2.13;;;26.80;90.10;;;;;;5066023;28;20029;-43
2021/11/24 07:12:42;;;;;;;5.10;2.13;;;26.80;90.10;;;;;;5065653;28;20020;-45
2021/11/24 07:15:09;;;;;;;2.17;1.98;;;26.80;90.10;;;;;;5066042;28;20045;-43
2021/11/24 07:17:36;;;;;;;7.40;2.40;;;26.80;90.10;;;;;;5065590;28;20017;-42
2021/11/24 07:20:05;;;;;;;8.73;2.35;;;26.80;90.00;;;;;;5066011;28;20066;-46
2021/11/24 07:22:32;;;;;;;4.45;2.10;;;26.80;90.10;;;;;;5065401;28;20301;-44
2021/11/24 07:24:58;;;;;;;5.47;2.10;;;26.80;90.10;;;;;;5065998;28;20039;-47
2021/11/24 07:27:25;;;;;;;4.55;2.15;;;26.80;90.10;;;;;;5065736;28;20043;-44
2021/11/24 07:29:52;;;;;;;3.95;2.22;;;26.80;90.10;;;;;;5065842;28;20055;-44
2021/11/24 07:32:19;;;;;;;5.15;2.47;;;26.80;90.10;;;;;;5065230;28;20020;-50
2021/11/24 07:34:45;;;;;;;5.95;2.40;;;26.80;90.20;;;;;;5065577;28;20214;-46
2021/11/24 07:37:12;;;;;;;7.15;2.22;;;26.80;90.20;;;;;;5065037;28;20062;-45
2021/11/24 07:39:39;;;;;;;5.93;2.22;;;26.80;90.20;;;;;;5065636;28;20052;-44
2021/11/24 07:42:06;;;;;;;6.22;2.45;;;26.80;90.20;;;;;;5065246;28;20024;-44
2021/11/24 07:44:32;;;;;;;3.53;2.20;;;26.80;90.20;;;;;;5065375;28;20027;-47
2021/11/24 07:46:59;;;;;;;4.47;2.33;;;26.80;90.30;;;;;;5065527;28;20029;-47
2021/11/24 07:49:25;;;;;;;6.15;2.70;;;26.80;90.40;;;;;;5065290;28;20032;-46
2021/11/24 07:51:52;;;;;;;6.13;2.50;;;26.80;90.40;;;;;;5064956;28;20029;-47
2021/11/24 07:54:18;;;;;;;10.20;2.50;;;26.80;90.40;;;;;;5065212;28;20029;-46
2021/11/24 07:56:45;;;;;;;5.65;2.13;;;26.80;90.40;;;;;;5065085;28;20329;-42
2021/11/24 07:59:11;;;;;;;3.90;2.30;;;26.80;90.40;;;;;;5064895;28;20033;-46
2021/11/24 08:01:38;;;;;;;6.80;2.45;;;26.80;90.50;;;;;;5064768;28;20333;-44
2021/11/24 08:04:08;;;;;;;8.02;2.50;;;26.70;90.40;;;;;;5065006;28;20029;-55
2021/11/24 08:06:34;;;;;;;7.40;2.30;;;26.70;90.30;;;;;;5065125;28;20329;-44
2021/11/24 08:09:01;;;;;;;8.20;2.10;;;26.80;90.40;;;;;;5064528;28;20254;-46
2021/11/24 08:11:27;;;;;;;4.95;2.58;;;26.80;90.50;;;;;;5064046;28;20025;-49
2021/11/24 08:13:54;;;;;;;7.20;2.42;;;26.70;90.60;;;;;;5064588;28;20036;-48
2021/11/24 08:16:21;;;;;;;3.78;2.22;;;26.70;90.50;;;;;;5064601;28;20028;-44
2021/11/24 08:18:47;;;;;;;5.53;2.03;;;26.70;90.60;;;;;;5064497;28;20059;-48
2021/11/24 08:21:14;;;;;;;5.50;2.30;;;26.70;90.60;;;;;;5064498;28;20055;-46
2021/11/24 08:23:41;;;;;;;6.45;2.47;;;26.70;90.70;;;;;;5064657;28;20033;-48
2021/11/24 08:26:07;;;;;;;3.67;2.17;;;26.70;90.60;;;;;;5064459;28;20084;-45
2021/11/24 08:28:34;;;;;;;4.10;2.20;;;26.70;90.60;;;;;;5064666;28;20245;-45
2021/11/24 08:31:00;;;;;;;5.88;1.98;;;26.60;90.60;;;;;;5064208;28;20025;-45
2021/11/24 08:33:27;;;;;;;2.58;1.85;;;26.60;90.60;;;;;;5064290;28;20025;-44
2021/11/24 08:35:54;;;;;;;6.35;2.22;;;26.60;90.60;;;;;;5064162;28;20317;-46
2021/11/24 08:38:20;;;;;;;6.40;2.28;;;26.60;90.70;;;;;;5064054;28;20033;-48
2021/11/24 08:40:47;;;;;;;4.43;2.38;;;26.60;90.60;;;;;;5064049;28;20021;-43
2021/11/24 08:43:14;;;;;;;4.28;2.38;;;26.60;90.70;;;;;;5064467;28;20027;-45
2021/11/24 08:45:41;;;;;;;4.97;1.90;;;26.60;90.60;;;;;;5063994;28;20025;-52
2021/11/24 08:48:07;;;;;;;8.27;2.30;;;26.60;90.70;;;;;;5064020;28;20214;-49
2021/11/24 08:50:35;;;;;;;4.25;2.10;;;26.60;90.80;;;;;;5064179;28;20035;-47
2021/11/24 08:53:01;;;;;;;5.15;2.10;;;26.60;90.70;;;;;;5063863;28;20027;-46
2021/11/24 08:55:28;;;;;;;4.53;2.17;;;26.60;90.80;;;;;;5063800;28;20034;-47
2021/11/24 08:57:56;;;;;;;7.50;2.47;;;26.60;90.70;;;;;;5063741;28;20052;-48
2021/11/24 09:00:23;;;;;;;8.98;2.60;;;26.60;90.90;;;;;;5063684;28;20360;-49
2021/11/24 09:02:50;;;;;;;4.93;2.22;;;26.60;90.90;;;;;;5063751;28;20021;-45
2021/11/24 09:05:18;;;;;;;4.78;2.10;;;26.60;90.90;;;;;;5064064;28;20041;-51
2021/11/24 09:07:49;;;;;;;2.88;2.10;;;26.60;91.10;;;;;;5064092;28;20024;-51
2021/11/24 09:10:17;;;;;;;3.30;2.20;;;26.60;90.90;;;;;;5064045;28;20082;-45
2021/11/24 09:12:44;;;;;;;5.88;2.47;;;26.60;90.90;;;;;;5063742;28;20021;-50
2021/11/24 09:15:10;;;;;;;5.45;2.50;;;26.60;90.90;;;;;;5064093;28;20021;-45
2021/11/24 09:17:37;;;;;;;4.38;2.45;;;26.60;90.90;;;;;;5063884;28;20067;-44
2021/11/24 09:20:04;;;;;;;7.90;2.65;;;26.60;91.00;;;;;;5064152;28;20028;-45
2021/11/24 09:22:31;;;;;;;5.03;2.50;;;26.60;91.00;;;;;;5064674;28;20123;-44
2021/11/24 09:24:59;;;;;;;4.65;2.42;;;26.60;91.10;;;;;;5068060;28;20032;-43
2021/11/24 09:27:31;;;;;;;6.80;3.08;;;26.60;91.10;;;;;;5067852;28;20021;-46
2021/11/24 09:29:59;;;;;;;7.57;3.05;;;26.60;91.30;;;;;;5068227;28;20129;-44
2021/11/24 09:32:27;;;;;;;5.53;3.60;;;26.60;91.40;;;;;;5067807;28;20319;-44
2021/11/24 09:34:54;;;;;;;10.30;3.05;;;26.60;91.50;;;;;;5067853;28;20025;-42
2021/11/24 09:37:21;;;;;;;4.88;3.08;;;26.60;91.50;;;;;;5067857;28;20025;-48
2021/11/24 09:39:48;;;;;;;4.82;2.70;;;26.60;91.60;;;;;;5067786;28;20035;-46
2021/11/24 09:42:17;;;;;;;6.22;2.95;;;26.60;91.60;;;;;;5067525;28;20025;-44
2021/11/24 09:44:48;;;;;;;4.22;2.90;;;26.60;91.70;;;;;;5067704;28;20056;-45
2021/11/24 09:47:15;;;;;;;6.17;2.70;;;26.60;91.70;;;;;;5067407;28;20310;-47
2021/11/24 09:49:46;;;;;;;8.10;3.22;;;26.60;91.70;;;;;;5067600;28;20032;-47
2021/11/24 09:52:14;;;;;;;6.32;2.95;;;26.60;91.80;;;;;;5067148;28;20052;-47
2021/11/24 09:54:41;;;;;;;3.65;2.80;;;26.60;91.80;;;;;;5067467;28;20025;-44
2021/11/24 09:57:09;;;;;;;3.90;2.60;;;26.60;91.80;;;;;;5067051;28;20066;-43
2021/11/24 09:59:36;;;;;;;4.15;2.28;;;26.60;91.80;;;;;;5067523;28;20471;-46
2021/11/24 10:02:04;;;;;;;6.20;2.75;;;26.60;91.90;;;;;;5067123;28;20078;-53
2021/11/24 10:04:30;;;;;;;3.67;2.80;;;26.50;91.90;;;;;;5067638;28;20049;-45
2021/11/24 10:06:57;;;;;;;8.40;3.13;;;26.50;91.90;;;;;;5066669;28;20095;-51
2021/11/24 10:09:24;;;;;;;4.78;3.00;;;26.50;91.90;;;;;;5067203;28;20046;-45
2021/11/24 10:11:51;;;;;;;6.40;3.00;;;26.50;92.00;;;;;;5066722;28;20021;-46
2021/11/24 10:14:18;;;;;;;5.47;3.03;;;26.60;92.00;;;;;;5066961;28;20293;-45
2021/11/24 10:16:46;;;;;;;6.03;3.22;;;26.50;92.00;;;;;;5067086;28;20178;-46
2021/11/24 10:19:14;;;;;;;7.35;3.13;;;26.60;92.10;;;;;;5067189;28;20085;-41
2021/11/24 10:21:57;;;;;;;7.47;3.35;;;26.60;92.10;;;;;;5066499;28;20024;-46
2021/11/24 10:24:43;;;;;;;5.43;3.30;;;26.60;92.10;;;;;;5067120;28;20028;-51
2021/11/24 10:27:14;;;;;;;5.85;3.35;;;26.50;92.10;;;;;;5066565;28;20017;-43
2021/11/24 10:29:54;;;;;;;6.88;3.80;;;26.50;92.20;;;;;;5067018;28;20049;-45
2021/11/24 10:32:27;;;;;;;5.95;3.33;;;26.50;92.20;;;;;;5066781;28;20083;-46
2021/11/24 10:34:56;;;;;;;8.23;3.28;;;26.50;92.20;;;;;;5066079;28;20024;-47
2021/11/24 10:37:23;;;;;;;4.88;3.40;;;26.50;92.20;;;;;;5066288;28;20048;-44
2021/11/24 10:40:00;;;;;;;9.50;3.05;;;26.50;92.20;;;;;;5066681;28;20164;-45
2021/11/24 10:42:39;;;;;;;6.10;3.20;;;26.50;92.20;;;;;;5066126;28;20041;-45
2021/11/24 10:45:19;;;;;;;4.43;2.85;;;26.50;92.20;;;;;;5066674;28;20077;-43
2021/11/24 10:48:00;;;;;;;7.22;3.15;;;26.50;92.20;;;;;;5066318;28;20058;-45
2021/11/24 10:50:30;;;;;;;5.95;3.13;;;26.50;92.10;;;;;;5065987;28;20198;-46
2021/11/24 10:52:57;;;;;;;3.92;3.40;;;26.50;92.20;;;;;;5065930;28;20209;-44
2021/11/24 10:55:30;;;;;;;5.80;3.42;;;26.50;92.20;;;;;;5065874;28;20029;-45
2021/11/24 10:58:07;;;;;;;6.97;3.35;;;26.50;92.20;;;;;;5065689;28;20024;-42
2021/11/24 11:00:42;;;;;;;5.03;3.50;;;26.50;92.20;;;;;;5065709;28;20330;-46
2021/11/24 11:03:10;;;;;;;9.00;4.00;;;26.50;92.20;;;;;;5065917;28;20025;-46
2021/11/24 11:05:37;;;;;;;5.25;3.80;;;26.50;92.20;;;;;;5065443;28;20099;-47
2021/11/24 11:08:08;;;;;;;6.22;4.10;;;26.50;92.20;;;;;;5066095;28;20025;-45
2021/11/24 11:10:43;;;;;;;7.15;4.85;;;26.50;92.20;;;;;;5065728;28;20032;-49
2021/11/24 11:13:19;;;;;;;5.70;4.78;;;26.50;92.20;;;;;;5065614;28;20029;-44
2021/11/24 11:15:51;;;;;;;7.25;4.82;;;26.50;92.20;;;;;;5065840;28;20025;-47
2021/11/24 11:18:26;;;;;;;7.47;4.85;;;26.50;92.30;;;;;;5065519;28;20075;-44
2021/11/24 11:21:00;;;;;;;14.32;5.93;;;26.50;92.30;;;;;;5065825;28;20067;-46
2021/11/24 11:23:30;;;;;;;12.70;5.13;;;26.50;92.60;;;;;;5066196;28;20022;-47
2021/11/24 11:26:02;;;;;;;11.50;5.82;;;26.50;92.50;;;;;;5065997;28;20033;-51
2021/11/24 11:28:31;;;;;;;8.32;5.85;;;26.50;92.50;;;;;;5066162;28;20025;-45
2021/11/24 11:31:02;;;;;;;8.05;5.25;;;26.50;92.40;;;;;;5065769;28;20409;-45
2021/11/24 11:33:32;;;;;;;9.57;5.18;;;26.50;92.50;;;;;;5065550;28;20213;-48
2021/11/24 11:36:09;;;;;;;9.32;5.10;;;26.50;92.50;;;;;;5063554;28;20032;-49
2021/11/24 11:38:40;;;;;;;10.57;4.57;;;26.50;92.40;;;;;;5063915;28;20036;-53
2021/11/24 11:41:08;;;;;;;6.97;4.10;;;26.50;92.40;;;;;;5064466;28;20017;-46
2021/11/24 11:43:37;;;;;;;6.88;4.00;;;26.60;92.40;;;;;;5065913;28;20020;-44
2021/11/24 11:46:50;;;;;;;6.78;4.20;;;26.50;92.20;;;;;;5064336;28;20017;-50
2021/11/24 11:49:21;;;;;;;7.90;4.18;;;26.60;92.20;;;;;;5060399;28;20376;-45
2021/11/24 11:51:50;;;;;;;6.00;4.22;;;26.60;92.10;;;;;;5065750;28;20032;-47
2021/11/24 11:54:25;;;;;;;7.97;3.97;;;26.60;92.00;;;;;;5065478;28;20032;-47
2021/11/24 11:56:53;;;;;;;7.50;4.18;;;26.60;91.90;;;;;;5064956;28;20025;-48
2021/11/24 11:59:23;;;;;;;5.53;4.30;;;26.60;91.90;;;;;;5065425;28;20071;-52
2021/11/24 12:02:03;;;;;;;8.35;4.43;;;26.60;91.90;;;;;;5064804;28;20027;-46
2021/11/24 12:04:30;;;;;;;12.50;5.38;;;26.70;91.90;;;;;;5065459;28;20025;-52
2021/11/24 12:06:57;;;;;;;7.93;4.43;;;26.70;92.00;;;;;;5064729;28;20162;-46
2021/11/24 12:09:35;;;;;;;6.25;4.40;;;26.70;92.00;;;;;;5065125;28;20025;-46
2021/11/24 12:12:06;;;;;;;7.30;3.85;;;26.80;91.90;;;;;;5064643;28;20313;-45
2021/11/24 12:14:52;;;;;;;5.60;3.85;;;26.70;91.60;;;;;;5065182;28;20096;-46
2021/11/24 12:17:31;;;;;;;6.00;3.67;;;26.70;91.70;;;;;;5064409;28;20044;-46
2021/11/24 12:19:58;;;;;;;7.65;3.90;;;26.80;91.70;;;;;;5065225;28;20036;-47
2021/11/24 12:22:48;;;;;;;7.13;3.90;;;26.80;91.70;;;;;;5064758;28;20024;-47
2021/11/24 12:25:25;;;;;;;9.15;4.00;;;26.80;91.40;;;;;;5061891;28;20032;-46
2021/11/24 12:27:54;;;;;;;7.32;3.65;;;26.80;91.50;;;;;;5064167;28;20062;-49
2021/11/24 12:30:52;;;;;;;10.05;4.03;;;26.80;91.30;;;;;;5064646;28;20017;-48
2021/11/24 12:33:26;;;;;;;10.40;4.00;;;26.90;91.40;;;;;;5064313;28;20165;-50
2021/11/24 12:35:54;;;;;;;8.68;3.63;;;26.90;91.40;;;;;;5064264;28;20040;-44
2021/11/24 12:38:44;;;;;;;6.80;3.38;;;26.90;91.40;;;;;;5064092;28;20205;-45
2021/11/24 12:41:15;;;;;;;10.75;3.67;;;26.90;91.20;;;;;;5058595;28;20024;-55
2021/11/24 12:43:45;;;;;;;7.18;3.38;;;26.90;91.10;;;;;;5064428;28;20025;-47
2021/11/24 12:46:23;;;;;;;6.20;3.45;;;26.90;91.10;;;;;;5064672;28;20038;-48
2021/11/24 12:48:54;;;;;;;9.38;3.72;;;26.90;91.10;;;;;;5064822;28;20028;-50
2021/11/24 12:51:36;;;;;;;7.23;3.57;;;26.90;91.20;;;;;;5064657;28;20044;-47